sensor_id;sensor_type;location;lat;lon;timestamp;temperature;humidity
23283;DHT22;11810;51.178;3.878;2022-11-24T00:01:25;8.70;99.90
23283;DHT22;11810;51.178;3.878;2022-11-24T00:03:55;8.80;99.90
23283;DHT22;11810;51.178;3.878;2022-11-24T00:06:21;8.80;99.90
23283;DHT22;11810;51.178;3.878;2022-11-24T00:08:47;8.90;99.90
23283;DHT22;11810;51.178;3.878;2022-11-24T00:11:15;8.80;99.90
23283;DHT22;11810;51.178;3.878;2022-11-24T00:13:41;8.80;99.90
23283;DHT22;11810;51.178;3.878;2022-11-24T00:16:25;8.80;99.90
23283;DHT22;11810;51.178;3.878;2022-11-24T00:18:52;8.90;99.90
23283;DHT22;11810;51.178;3.878;2022-11-24T00:21:18;9.00;99.90
23283;DHT22;11810;51.178;3.878;2022-11-24T00:23:45;9.00;99.90
23283;DHT22;11810;51.178;3.878;2022-11-24T00:26:14;9.10;99.90
23283;DHT22;11810;51.178;3.878;2022-11-24T00:28:41;9.10;99.90
23283;DHT22;11810;51.178;3.878;2022-11-24T00:34:03;9.00;99.90
23283;DHT22;11810;51.178;3.878;2022-11-24T00:36:31;9.10;99.90
23283;DHT22;11810;51.178;3.878;2022-11-24T00:39:02;9.10;99.90
23283;DHT22;11810;51.178;3.878;2022-11-24T00:41:28;9.10;99.90
23283;DHT22;11810;51.178;3.878;2022-11-24T00:43:54;9.20;99.90
23283;DHT22;11810;51.178;3.878;2022-11-24T00:46:20;9.30;99.90
23283;DHT22;11810;51.178;3.878;2022-11-24T00:48:46;9.10;99.90
23283;DHT22;11810;51.178;3.878;2022-11-24T00:51:12;9.20;99.90
23283;DHT22;11810;51.178;3.878;2022-11-24T00:53:39;9.30;99.90
23283;DHT22;11810;51.178;3.878;2022-11-24T00:56:05;9.30;99.90
23283;DHT22;11810;51.178;3.878;2022-11-24T00:58:31;9.40;99.90
23283;DHT22;11810;51.178;3.878;2022-11-24T01:01:01;9.30;99.90
23283;DHT22;11810;51.178;3.878;2022-11-24T01:03:27;9.40;99.90
23283;DHT22;11810;51.178;3.878;2022-11-24T01:05:53;9.30;99.90
23283;DHT22;11810;51.178;3.878;2022-11-24T01:08:19;9.40;99.90
23283;DHT22;11810;51.178;3.878;2022-11-24T01:10:44;9.30;99.90
23283;DHT22;11810;51.178;3.878;2022-11-24T01:13:10;9.20;99.90
23283;DHT22;11810;51.178;3.878;2022-11-24T01:15:37;9.30;99.90
23283;DHT22;11810;51.178;3.878;2022-11-24T01:18:03;9.40;99.90
23283;DHT22;11810;51.178;3.878;2022-11-24T01:20:30;9.40;99.90
23283;DHT22;11810;51.178;3.878;2022-11-24T01:22:55;9.40;99.90
23283;DHT22;11810;51.178;3.878;2022-11-24T01:25:21;9.40;99.90
23283;DHT22;11810;51.178;3.878;2022-11-24T01:27:47;9.40;99.90
23283;DHT22;11810;51.178;3.878;2022-11-24T01:30:12;9.30;99.90
23283;DHT22;11810;51.178;3.878;2022-11-24T01:32:38;9.40;99.90
23283;DHT22;11810;51.178;3.878;2022-11-24T01:35:04;9.40;99.90
23283;DHT22;11810;51.178;3.878;2022-11-24T01:37:30;9.50;99.90
23283;DHT22;11810;51.178;3.878;2022-11-24T01:39:56;9.50;99.90
23283;DHT22;11810;51.178;3.878;2022-11-24T01:42:22;9.60;99.90
23283;DHT22;11810;51.178;3.878;2022-11-24T01:44:49;9.40;99.90
23283;DHT22;11810;51.178;3.878;2022-11-24T01:47:33;9.50;99.90
23283;DHT22;11810;51.178;3.878;2022-11-24T01:50:01;9.30;99.90
23283;DHT22;11810;51.178;3.878;2022-11-24T01:55:00;9.10;99.90
23283;DHT22;11810;51.178;3.878;2022-11-24T01:57:28;9.10;99.90
23283;DHT22;11810;51.178;3.878;2022-11-24T01:59:56;9.10;99.90
23283;DHT22;11810;51.178;3.878;2022-11-24T02:02:22;9.10;99.90
23283;DHT22;11810;51.178;3.878;2022-11-24T02:04:49;9.10;99.90
23283;DHT22;11810;51.178;3.878;2022-11-24T02:07:15;9.20;99.90
23283;DHT22;11810;51.178;3.878;2022-11-24T02:09:45;9.30;99.90
23283;DHT22;11810;51.178;3.878;2022-11-24T02:12:13;9.30;99.90
23283;DHT22;11810;51.178;3.878;2022-11-24T02:14:39;9.30;99.90
23283;DHT22;11810;51.178;3.878;2022-11-24T02:17:06;9.20;99.90
23283;DHT22;11810;51.178;3.878;2022-11-24T02:22:07;9.10;99.90
23283;DHT22;11810;51.178;3.878;2022-11-24T02:24:39;9.10;99.90
23283;DHT22;11810;51.178;3.878;2022-11-24T02:27:11;9.10;99.90
23283;DHT22;11810;51.178;3.878;2022-11-24T02:29:37;9.20;99.90
23283;DHT22;11810;51.178;3.878;2022-11-24T02:32:05;9.30;99.90
23283;DHT22;11810;51.178;3.878;2022-11-24T02:34:31;9.10;99.90
23283;DHT22;11810;51.178;3.878;2022-11-24T02:36:57;9.00;99.90
23283;DHT22;11810;51.178;3.878;2022-11-24T02:39:23;8.90;99.90
23283;DHT22;11810;51.178;3.878;2022-11-24T02:41:50;8.70;99.90
23283;DHT22;11810;51.178;3.878;2022-11-24T02:44:16;8.50;99.90
23283;DHT22;11810;51.178;3.878;2022-11-24T02:46:44;8.40;99.90
23283;DHT22;11810;51.178;3.878;2022-11-24T02:49:09;8.30;99.90
23283;DHT22;11810;51.178;3.878;2022-11-24T02:51:35;8.20;99.90
23283;DHT22;11810;51.178;3.878;2022-11-24T02:54:02;8.20;99.90
23283;DHT22;11810;51.178;3.878;2022-11-24T02:56:27;8.30;99.90
23283;DHT22;11810;51.178;3.878;2022-11-24T02:58:53;8.20;99.90
23283;DHT22;11810;51.178;3.878;2022-11-24T03:01:19;8.10;99.90
23283;DHT22;11810;51.178;3.878;2022-11-24T03:03:44;8.10;99.90
23283;DHT22;11810;51.178;3.878;2022-11-24T03:06:10;8.20;99.90
23283;DHT22;11810;51.178;3.878;2022-11-24T03:08:36;8.40;99.90
23283;DHT22;11810;51.178;3.878;2022-11-24T03:11:02;8.30;99.90
23283;DHT22;11810;51.178;3.878;2022-11-24T03:13:27;8.30;99.90
23283;DHT22;11810;51.178;3.878;2022-11-24T03:15:53;8.30;99.90
23283;DHT22;11810;51.178;3.878;2022-11-24T03:18:19;8.30;99.90
23283;DHT22;11810;51.178;3.878;2022-11-24T03:20:45;8.30;99.90
23283;DHT22;11810;51.178;3.878;2022-11-24T03:23:10;8.40;99.90
23283;DHT22;11810;51.178;3.878;2022-11-24T03:25:36;8.50;99.90
23283;DHT22;11810;51.178;3.878;2022-11-24T03:28:02;8.50;99.90
23283;DHT22;11810;51.178;3.878;2022-11-24T03:30:27;8.40;99.90
23283;DHT22;11810;51.178;3.878;2022-11-24T03:32:53;8.50;99.90
23283;DHT22;11810;51.178;3.878;2022-11-24T03:35:19;8.50;99.90
23283;DHT22;11810;51.178;3.878;2022-11-24T03:37:45;8.30;99.90
23283;DHT22;11810;51.178;3.878;2022-11-24T03:40:11;8.30;99.90
23283;DHT22;11810;51.178;3.878;2022-11-24T03:42:36;8.30;99.90
23283;DHT22;11810;51.178;3.878;2022-11-24T03:45:02;8.40;99.90
23283;DHT22;11810;51.178;3.878;2022-11-24T03:47:28;8.20;99.90
23283;DHT22;11810;51.178;3.878;2022-11-24T03:49:54;8.10;99.90
23283;DHT22;11810;51.178;3.878;2022-11-24T03:52:19;8.10;99.90
23283;DHT22;11810;51.178;3.878;2022-11-24T03:54:45;8.10;99.90
23283;DHT22;11810;51.178;3.878;2022-11-24T03:57:12;8.00;99.90
23283;DHT22;11810;51.178;3.878;2022-11-24T03:59:38;8.00;99.90
23283;DHT22;11810;51.178;3.878;2022-11-24T04:02:03;8.10;99.90
23283;DHT22;11810;51.178;3.878;2022-11-24T04:04:29;8.00;99.90
23283;DHT22;11810;51.178;3.878;2022-11-24T04:06:55;7.90;99.90
23283;DHT22;11810;51.178;3.878;2022-11-24T04:09:20;7.90;99.90
23283;DHT22;11810;51.178;3.878;2022-11-24T04:11:46;7.90;99.90
23283;DHT22;11810;51.178;3.878;2022-11-24T04:14:30;7.90;99.90
23283;DHT22;11810;51.178;3.878;2022-11-24T04:16:56;7.70;99.90
23283;DHT22;11810;51.178;3.878;2022-11-24T04:19:22;7.70;99.90
23283;DHT22;11810;51.178;3.878;2022-11-24T04:21:47;7.80;99.90
23283;DHT22;11810;51.178;3.878;2022-11-24T04:24:13;7.90;99.90
23283;DHT22;11810;51.178;3.878;2022-11-24T04:26:39;7.90;99.90
23283;DHT22;11810;51.178;3.878;2022-11-24T04:29:05;8.00;99.90
23283;DHT22;11810;51.178;3.878;2022-11-24T04:31:30;8.00;99.90
23283;DHT22;11810;51.178;3.878;2022-11-24T04:33:56;8.00;99.90
23283;DHT22;11810;51.178;3.878;2022-11-24T04:36:22;8.10;99.90
23283;DHT22;11810;51.178;3.878;2022-11-24T04:38:48;7.90;99.90
23283;DHT22;11810;51.178;3.878;2022-11-24T04:41:13;7.90;99.90
23283;DHT22;11810;51.178;3.878;2022-11-24T04:43:39;7.90;99.90
23283;DHT22;11810;51.178;3.878;2022-11-24T04:46:05;7.90;99.90
23283;DHT22;11810;51.178;3.878;2022-11-24T04:48:30;7.90;99.90
23283;DHT22;11810;51.178;3.878;2022-11-24T04:50:56;8.00;99.90
23283;DHT22;11810;51.178;3.878;2022-11-24T04:53:22;7.90;99.90
23283;DHT22;11810;51.178;3.878;2022-11-24T04:55:48;8.00;99.90
23283;DHT22;11810;51.178;3.878;2022-11-24T04:58:13;8.10;99.90
23283;DHT22;11810;51.178;3.878;2022-11-24T05:00:39;8.10;99.90
23283;DHT22;11810;51.178;3.878;2022-11-24T05:03:05;8.00;99.90
23283;DHT22;11810;51.178;3.878;2022-11-24T05:05:31;8.00;99.90
23283;DHT22;11810;51.178;3.878;2022-11-24T05:08:00;7.90;99.90
23283;DHT22;11810;51.178;3.878;2022-11-24T05:10:26;7.90;99.90
23283;DHT22;11810;51.178;3.878;2022-11-24T05:13:01;7.90;99.90
23283;DHT22;11810;51.178;3.878;2022-11-24T05:15:28;7.90;99.90
23283;DHT22;11810;51.178;3.878;2022-11-24T05:17:54;8.00;99.90
23283;DHT22;11810;51.178;3.878;2022-11-24T05:20:20;8.00;99.90
23283;DHT22;11810;51.178;3.878;2022-11-24T05:22:45;8.00;99.90
23283;DHT22;11810;51.178;3.878;2022-11-24T05:25:11;7.90;99.90
23283;DHT22;11810;51.178;3.878;2022-11-24T05:27:38;8.00;99.90
23283;DHT22;11810;51.178;3.878;2022-11-24T05:30:05;7.90;99.90
23283;DHT22;11810;51.178;3.878;2022-11-24T05:32:30;7.90;99.90
23283;DHT22;11810;51.178;3.878;2022-11-24T05:34:56;7.80;99.90
23283;DHT22;11810;51.178;3.878;2022-11-24T05:37:22;7.80;99.90
23283;DHT22;11810;51.178;3.878;2022-11-24T05:39:50;7.80;99.90
23283;DHT22;11810;51.178;3.878;2022-11-24T05:42:15;7.70;99.90
23283;DHT22;11810;51.178;3.878;2022-11-24T05:45:00;7.70;99.90
23283;DHT22;11810;51.178;3.878;2022-11-24T05:47:25;7.60;99.90
23283;DHT22;11810;51.178;3.878;2022-11-24T05:49:51;7.60;99.90
23283;DHT22;11810;51.178;3.878;2022-11-24T05:52:17;7.60;99.90
23283;DHT22;11810;51.178;3.878;2022-11-24T05:54:42;7.60;99.90
23283;DHT22;11810;51.178;3.878;2022-11-24T05:57:08;7.60;99.90
23283;DHT22;11810;51.178;3.878;2022-11-24T05:59:34;7.50;99.90
23283;DHT22;11810;51.178;3.878;2022-11-24T06:01:59;7.50;99.90
23283;DHT22;11810;51.178;3.878;2022-11-24T06:04:25;7.50;99.90
23283;DHT22;11810;51.178;3.878;2022-11-24T06:06:51;7.50;99.90
23283;DHT22;11810;51.178;3.878;2022-11-24T06:09:17;7.60;99.90
23283;DHT22;11810;51.178;3.878;2022-11-24T06:11:42;7.50;99.90
23283;DHT22;11810;51.178;3.878;2022-11-24T06:14:08;7.50;99.90
23283;DHT22;11810;51.178;3.878;2022-11-24T06:16:34;7.60;99.90
23283;DHT22;11810;51.178;3.878;2022-11-24T06:19:00;7.50;99.90
23283;DHT22;11810;51.178;3.878;2022-11-24T06:21:27;7.40;99.90
23283;DHT22;11810;51.178;3.878;2022-11-24T06:23:52;7.40;99.90
23283;DHT22;11810;51.178;3.878;2022-11-24T06:26:18;7.40;99.90
23283;DHT22;11810;51.178;3.878;2022-11-24T06:28:44;7.40;99.90
23283;DHT22;11810;51.178;3.878;2022-11-24T06:31:10;7.40;99.90
23283;DHT22;11810;51.178;3.878;2022-11-24T06:33:36;7.40;99.90
23283;DHT22;11810;51.178;3.878;2022-11-24T06:36:04;7.40;99.90
23283;DHT22;11810;51.178;3.878;2022-11-24T06:38:30;7.40;99.90
23283;DHT22;11810;51.178;3.878;2022-11-24T06:43:25;7.30;99.90
23283;DHT22;11810;51.178;3.878;2022-11-24T06:45:51;7.30;99.90
23283;DHT22;11810;51.178;3.878;2022-11-24T06:48:17;7.30;99.90
23283;DHT22;11810;51.178;3.878;2022-11-24T06:50:43;7.30;99.90
23283;DHT22;11810;51.178;3.878;2022-11-24T06:53:08;7.40;99.90
23283;DHT22;11810;51.178;3.878;2022-11-24T06:55:34;7.40;99.90
23283;DHT22;11810;51.178;3.878;2022-11-24T06:58:00;7.40;99.90
23283;DHT22;11810;51.178;3.878;2022-11-24T07:00:25;7.30;99.90
23283;DHT22;11810;51.178;3.878;2022-11-24T07:02:53;7.40;99.90
23283;DHT22;11810;51.178;3.878;2022-11-24T07:05:19;7.30;99.90
23283;DHT22;11810;51.178;3.878;2022-11-24T07:07:44;7.30;99.90
23283;DHT22;11810;51.178;3.878;2022-11-24T07:10:10;7.30;99.90
23283;DHT22;11810;51.178;3.878;2022-11-24T07:12:36;7.30;99.90
23283;DHT22;11810;51.178;3.878;2022-11-24T07:15:01;7.20;99.90
23283;DHT22;11810;51.178;3.878;2022-11-24T07:17:27;7.20;99.90
23283;DHT22;11810;51.178;3.878;2022-11-24T07:19:53;7.20;99.90
23283;DHT22;11810;51.178;3.878;2022-11-24T07:22:19;7.20;99.90
23283;DHT22;11810;51.178;3.878;2022-11-24T07:24:44;7.20;99.90
23283;DHT22;11810;51.178;3.878;2022-11-24T07:27:10;7.20;99.90
23283;DHT22;11810;51.178;3.878;2022-11-24T07:29:35;7.10;99.90
23283;DHT22;11810;51.178;3.878;2022-11-24T07:32:01;7.00;99.90
23283;DHT22;11810;51.178;3.878;2022-11-24T07:34:27;7.00;99.90
23283;DHT22;11810;51.178;3.878;2022-11-24T07:36:53;7.10;99.90
23283;DHT22;11810;51.178;3.878;2022-11-24T07:39:19;7.00;99.90
23283;DHT22;11810;51.178;3.878;2022-11-24T07:41:44;6.90;99.90
23283;DHT22;11810;51.178;3.878;2022-11-24T07:44:10;6.90;99.90
23283;DHT22;11810;51.178;3.878;2022-11-24T07:46:36;7.10;99.90
23283;DHT22;11810;51.178;3.878;2022-11-24T07:49:01;7.10;99.90
23283;DHT22;11810;51.178;3.878;2022-11-24T07:51:27;7.10;99.90
23283;DHT22;11810;51.178;3.878;2022-11-24T07:53:53;7.30;99.90
23283;DHT22;11810;51.178;3.878;2022-11-24T07:56:19;7.40;99.90
23283;DHT22;11810;51.178;3.878;2022-11-24T07:58:44;7.30;99.90
23283;DHT22;11810;51.178;3.878;2022-11-24T08:01:11;7.30;99.90
23283;DHT22;11810;51.178;3.878;2022-11-24T08:03:36;7.30;99.90
23283;DHT22;11810;51.178;3.878;2022-11-24T08:06:02;7.40;99.90
23283;DHT22;11810;51.178;3.878;2022-11-24T08:08:29;7.40;99.90
23283;DHT22;11810;51.178;3.878;2022-11-24T08:10:57;7.50;99.90
23283;DHT22;11810;51.178;3.878;2022-11-24T08:13:23;7.60;99.90
23283;DHT22;11810;51.178;3.878;2022-11-24T08:15:49;7.60;99.90
23283;DHT22;11810;51.178;3.878;2022-11-24T08:18:14;7.70;99.90
23283;DHT22;11810;51.178;3.878;2022-11-24T08:20:40;7.80;99.90
23283;DHT22;11810;51.178;3.878;2022-11-24T08:23:06;7.90;99.90
23283;DHT22;11810;51.178;3.878;2022-11-24T08:25:31;7.90;99.90
23283;DHT22;11810;51.178;3.878;2022-11-24T08:28:01;8.10;99.90
23283;DHT22;11810;51.178;3.878;2022-11-24T08:30:27;8.30;99.90
23283;DHT22;11810;51.178;3.878;2022-11-24T08:32:53;8.40;99.90
23283;DHT22;11810;51.178;3.878;2022-11-24T08:35:19;8.60;99.90
23283;DHT22;11810;51.178;3.878;2022-11-24T08:37:45;8.80;99.90
23283;DHT22;11810;51.178;3.878;2022-11-24T08:40:11;8.90;99.90
23283;DHT22;11810;51.178;3.878;2022-11-24T08:42:37;8.90;99.90
23283;DHT22;11810;51.178;3.878;2022-11-24T08:45:03;9.10;99.90
23283;DHT22;11810;51.178;3.878;2022-11-24T08:47:29;9.30;99.90
23283;DHT22;11810;51.178;3.878;2022-11-24T08:49:55;9.30;99.90
23283;DHT22;11810;51.178;3.878;2022-11-24T08:52:20;9.70;99.90
23283;DHT22;11810;51.178;3.878;2022-11-24T08:54:46;10.20;99.90
23283;DHT22;11810;51.178;3.878;2022-11-24T08:57:12;10.80;99.90
23283;DHT22;11810;51.178;3.878;2022-11-24T08:59:38;11.20;99.90
23283;DHT22;11810;51.178;3.878;2022-11-24T09:02:04;11.70;99.90
23283;DHT22;11810;51.178;3.878;2022-11-24T09:04:30;11.70;99.90
23283;DHT22;11810;51.178;3.878;2022-11-24T09:06:56;12.20;99.90
23283;DHT22;11810;51.178;3.878;2022-11-24T09:09:22;12.20;99.90
23283;DHT22;11810;51.178;3.878;2022-11-24T09:11:47;12.70;99.90
23283;DHT22;11810;51.178;3.878;2022-11-24T09:14:13;12.50;99.90
23283;DHT22;11810;51.178;3.878;2022-11-24T09:16:39;12.40;99.90
23283;DHT22;11810;51.178;3.878;2022-11-24T09:19:04;12.50;99.90
23283;DHT22;11810;51.178;3.878;2022-11-24T09:21:32;12.90;99.90
23283;DHT22;11810;51.178;3.878;2022-11-24T09:24:01;12.90;99.90
23283;DHT22;11810;51.178;3.878;2022-11-24T09:26:27;13.00;99.90
23283;DHT22;11810;51.178;3.878;2022-11-24T09:28:53;13.40;99.90
23283;DHT22;11810;51.178;3.878;2022-11-24T09:31:20;13.20;99.90
23283;DHT22;11810;51.178;3.878;2022-11-24T09:33:46;13.40;99.90
23283;DHT22;11810;51.178;3.878;2022-11-24T09:36:12;13.80;99.90
23283;DHT22;11810;51.178;3.878;2022-11-24T09:38:38;13.70;99.90
23283;DHT22;11810;51.178;3.878;2022-11-24T09:41:14;14.20;99.90
23283;DHT22;11810;51.178;3.878;2022-11-24T09:44:30;14.70;99.90
23283;DHT22;11810;51.178;3.878;2022-11-24T09:48:56;13.80;99.90
23283;DHT22;11810;51.178;3.878;2022-11-24T09:51:26;13.70;99.90
23283;DHT22;11810;51.178;3.878;2022-11-24T09:54:08;13.70;99.90
23283;DHT22;11810;51.178;3.878;2022-11-24T09:56:37;13.70;99.90
23283;DHT22;11810;51.178;3.878;2022-11-24T09:59:23;13.30;99.90
23283;DHT22;11810;51.178;3.878;2022-11-24T10:01:50;12.70;99.90
23283;DHT22;11810;51.178;3.878;2022-11-24T10:04:20;12.30;99.90
23283;DHT22;11810;51.178;3.878;2022-11-24T10:06:50;12.00;99.90
23283;DHT22;11810;51.178;3.878;2022-11-24T10:12:03;11.80;99.90
23283;DHT22;11810;51.178;3.878;2022-11-24T10:19:57;11.10;99.90
23283;DHT22;11810;51.178;3.878;2022-11-24T10:25:06;10.80;99.90
23283;DHT22;11810;51.178;3.878;2022-11-24T10:27:34;10.60;99.90
23283;DHT22;11810;51.178;3.878;2022-11-24T10:30:02;10.40;99.90
23283;DHT22;11810;51.178;3.878;2022-11-24T10:32:36;10.40;99.90
23283;DHT22;11810;51.178;3.878;2022-11-24T10:35:18;10.60;99.90
23283;DHT22;11810;51.178;3.878;2022-11-24T10:37:55;10.60;99.90
23283;DHT22;11810;51.178;3.878;2022-11-24T10:43:00;10.60;99.90
23283;DHT22;11810;51.178;3.878;2022-11-24T10:45:26;10.70;99.90
23283;DHT22;11810;51.178;3.878;2022-11-24T10:47:52;10.60;99.90
23283;DHT22;11810;51.178;3.878;2022-11-24T10:50:52;10.60;99.90
23283;DHT22;11810;51.178;3.878;2022-11-24T10:53:26;10.60;99.90
23283;DHT22;11810;51.178;3.878;2022-11-24T11:00:48;10.70;99.90
23283;DHT22;11810;51.178;3.878;2022-11-24T11:03:18;10.70;99.90
23283;DHT22;11810;51.178;3.878;2022-11-24T11:05:49;10.70;99.90
23283;DHT22;11810;51.178;3.878;2022-11-24T11:08:17;10.60;99.90
23283;DHT22;11810;51.178;3.878;2022-11-24T11:10:44;10.60;99.90
23283;DHT22;11810;51.178;3.878;2022-11-24T11:13:24;10.50;99.90
23283;DHT22;11810;51.178;3.878;2022-11-24T11:15:50;10.60;99.90
23283;DHT22;11810;51.178;3.878;2022-11-24T11:18:16;10.70;99.90
23283;DHT22;11810;51.178;3.878;2022-11-24T11:20:50;10.60;99.90
23283;DHT22;11810;51.178;3.878;2022-11-24T11:23:24;10.80;99.90
23283;DHT22;11810;51.178;3.878;2022-11-24T11:25:52;10.90;99.90
23283;DHT22;11810;51.178;3.878;2022-11-24T11:28:36;10.90;99.90
23283;DHT22;11810;51.178;3.878;2022-11-24T11:31:03;10.80;99.90
23283;DHT22;11810;51.178;3.878;2022-11-24T11:33:30;10.90;99.90
23283;DHT22;11810;51.178;3.878;2022-11-24T11:35:56;10.90;99.90
23283;DHT22;11810;51.178;3.878;2022-11-24T11:38:23;11.00;99.90
23283;DHT22;11810;51.178;3.878;2022-11-24T11:40:49;11.10;99.90
23283;DHT22;11810;51.178;3.878;2022-11-24T11:43:21;11.10;99.90
23283;DHT22;11810;51.178;3.878;2022-11-24T11:46:11;11.00;99.90
23283;DHT22;11810;51.178;3.878;2022-11-24T11:48:36;11.00;99.90
23283;DHT22;11810;51.178;3.878;2022-11-24T11:56:20;11.40;99.90
23283;DHT22;11810;51.178;3.878;2022-11-24T12:06:47;11.40;99.90
23283;DHT22;11810;51.178;3.878;2022-11-24T12:09:41;11.50;99.90
23283;DHT22;11810;51.178;3.878;2022-11-24T12:12:32;12.00;99.90
23283;DHT22;11810;51.178;3.878;2022-11-24T12:22:52;13.70;99.90
23283;DHT22;11810;51.178;3.878;2022-11-24T12:25:21;14.20;99.90
23283;DHT22;11810;51.178;3.878;2022-11-24T12:30:24;14.00;99.90
23283;DHT22;11810;51.178;3.878;2022-11-24T12:33:01;14.20;99.90
23283;DHT22;11810;51.178;3.878;2022-11-24T12:35:41;14.30;99.90
23283;DHT22;11810;51.178;3.878;2022-11-24T12:38:20;14.20;99.90
23283;DHT22;11810;51.178;3.878;2022-11-24T12:43:23;13.40;99.90
23283;DHT22;11810;51.178;3.878;2022-11-24T12:51:03;12.70;99.90
23283;DHT22;11810;51.178;3.878;2022-11-24T12:53:31;12.50;99.90
23283;DHT22;11810;51.178;3.878;2022-11-24T12:55:59;12.50;99.90
23283;DHT22;11810;51.178;3.878;2022-11-24T12:58:31;12.50;99.90
23283;DHT22;11810;51.178;3.878;2022-11-24T13:06:00;12.30;99.90
23283;DHT22;11810;51.178;3.878;2022-11-24T13:08:27;12.30;99.90
23283;DHT22;11810;51.178;3.878;2022-11-24T13:10:54;12.30;99.90
23283;DHT22;11810;51.178;3.878;2022-11-24T13:14:03;12.20;99.90
23283;DHT22;11810;51.178;3.878;2022-11-24T13:16:29;12.20;99.90
23283;DHT22;11810;51.178;3.878;2022-11-24T13:19:06;12.30;99.90
23283;DHT22;11810;51.178;3.878;2022-11-24T13:21:35;12.40;99.90
23283;DHT22;11810;51.178;3.878;2022-11-24T13:31:52;12.10;99.90
23283;DHT22;11810;51.178;3.878;2022-11-24T13:42:17;11.80;99.90
23283;DHT22;11810;51.178;3.878;2022-11-24T13:44:43;11.70;99.90
23283;DHT22;11810;51.178;3.878;2022-11-24T13:49:53;11.70;99.90
23283;DHT22;11810;51.178;3.878;2022-11-24T13:55:01;11.80;99.90
23283;DHT22;11810;51.178;3.878;2022-11-24T13:57:33;11.80;99.90
23283;DHT22;11810;51.178;3.878;2022-11-24T14:00:00;11.90;99.90
23283;DHT22;11810;51.178;3.878;2022-11-24T14:02:26;11.90;99.90
23283;DHT22;11810;51.178;3.878;2022-11-24T14:04:52;11.90;99.90
23283;DHT22;11810;51.178;3.878;2022-11-24T14:07:18;11.70;99.90
23283;DHT22;11810;51.178;3.878;2022-11-24T14:09:47;11.70;99.90
23283;DHT22;11810;51.178;3.878;2022-11-24T14:14:44;11.70;99.90
23283;DHT22;11810;51.178;3.878;2022-11-24T14:17:14;11.80;99.90
23283;DHT22;11810;51.178;3.878;2022-11-24T14:19:45;11.90;99.90
23283;DHT22;11810;51.178;3.878;2022-11-24T14:22:33;11.90;99.90
23283;DHT22;11810;51.178;3.878;2022-11-24T14:24:57;12.00;99.90
23283;DHT22;11810;51.178;3.878;2022-11-24T14:27:30;11.80;99.90
23283;DHT22;11810;51.178;3.878;2022-11-24T14:29:58;11.70;99.90
23283;DHT22;11810;51.178;3.878;2022-11-24T14:32:24;11.60;99.90
23283;DHT22;11810;51.178;3.878;2022-11-24T14:34:50;11.50;99.90
23283;DHT22;11810;51.178;3.878;2022-11-24T14:37:16;11.40;99.90
23283;DHT22;11810;51.178;3.878;2022-11-24T14:39:43;11.30;99.90
23283;DHT22;11810;51.178;3.878;2022-11-24T14:42:46;11.30;99.90
23283;DHT22;11810;51.178;3.878;2022-11-24T14:45:01;11.40;99.90
23283;DHT22;11810;51.178;3.878;2022-11-24T14:47:29;11.20;99.90
23283;DHT22;11810;51.178;3.878;2022-11-24T14:49:55;11.10;99.90
23283;DHT22;11810;51.178;3.878;2022-11-24T14:52:22;11.10;99.90
23283;DHT22;11810;51.178;3.878;2022-11-24T14:54:49;11.00;99.90
23283;DHT22;11810;51.178;3.878;2022-11-24T14:57:33;10.90;99.90
23283;DHT22;11810;51.178;3.878;2022-11-24T15:05:04;10.80;99.90
23283;DHT22;11810;51.178;3.878;2022-11-24T15:07:30;10.70;99.90
23283;DHT22;11810;51.178;3.878;2022-11-24T15:09:57;10.60;99.90
23283;DHT22;11810;51.178;3.878;2022-11-24T15:12:27;10.50;99.90
23283;DHT22;11810;51.178;3.878;2022-11-24T15:14:59;10.50;99.90
23283;DHT22;11810;51.178;3.878;2022-11-24T15:17:26;10.50;99.90
23283;DHT22;11810;51.178;3.878;2022-11-24T15:24:56;10.80;99.90
23283;DHT22;11810;51.178;3.878;2022-11-24T15:27:23;10.70;99.90
23283;DHT22;11810;51.178;3.878;2022-11-24T15:29:48;10.60;99.90
23283;DHT22;11810;51.178;3.878;2022-11-24T15:32:14;10.60;99.90
23283;DHT22;11810;51.178;3.878;2022-11-24T15:34:40;10.70;99.90
23283;DHT22;11810;51.178;3.878;2022-11-24T15:37:08;10.80;99.90
23283;DHT22;11810;51.178;3.878;2022-11-24T15:39:34;10.80;99.90
23283;DHT22;11810;51.178;3.878;2022-11-24T15:42:00;10.80;99.90
23283;DHT22;11810;51.178;3.878;2022-11-24T15:44:26;10.60;99.90
23283;DHT22;11810;51.178;3.878;2022-11-24T15:46:51;10.60;99.90
23283;DHT22;11810;51.178;3.878;2022-11-24T15:49:19;10.80;99.90
23283;DHT22;11810;51.178;3.878;2022-11-24T15:51:45;10.70;99.90
23283;DHT22;11810;51.178;3.878;2022-11-24T15:54:12;10.60;99.90
23283;DHT22;11810;51.178;3.878;2022-11-24T15:56:39;10.50;99.90
23283;DHT22;11810;51.178;3.878;2022-11-24T15:59:08;10.30;99.90
23283;DHT22;11810;51.178;3.878;2022-11-24T16:01:35;10.30;99.90
23283;DHT22;11810;51.178;3.878;2022-11-24T16:04:01;10.30;99.90
23283;DHT22;11810;51.178;3.878;2022-11-24T16:06:27;10.20;99.90
23283;DHT22;11810;51.178;3.878;2022-11-24T16:08:53;10.10;99.90
23283;DHT22;11810;51.178;3.878;2022-11-24T16:11:19;10.10;99.90
23283;DHT22;11810;51.178;3.878;2022-11-24T16:13:44;10.10;99.90
23283;DHT22;11810;51.178;3.878;2022-11-24T16:16:10;10.10;99.90
23283;DHT22;11810;51.178;3.878;2022-11-24T16:18:37;10.20;99.90
23283;DHT22;11810;51.178;3.878;2022-11-24T16:21:05;10.20;99.90
23283;DHT22;11810;51.178;3.878;2022-11-24T16:23:31;10.10;99.90
23283;DHT22;11810;51.178;3.878;2022-11-24T16:25:57;10.20;99.90
23283;DHT22;11810;51.178;3.878;2022-11-24T16:28:22;10.20;99.90
23283;DHT22;11810;51.178;3.878;2022-11-24T16:30:49;10.20;99.90
23283;DHT22;11810;51.178;3.878;2022-11-24T16:33:15;10.20;99.90
23283;DHT22;11810;51.178;3.878;2022-11-24T16:35:41;10.10;99.90
23283;DHT22;11810;51.178;3.878;2022-11-24T16:38:09;10.10;99.90
23283;DHT22;11810;51.178;3.878;2022-11-24T16:40:38;10.10;99.90
23283;DHT22;11810;51.178;3.878;2022-11-24T16:43:04;10.10;99.90
23283;DHT22;11810;51.178;3.878;2022-11-24T16:45:29;10.10;99.90
23283;DHT22;11810;51.178;3.878;2022-11-24T16:47:55;10.00;99.90
23283;DHT22;11810;51.178;3.878;2022-11-24T16:50:21;10.00;99.90
23283;DHT22;11810;51.178;3.878;2022-11-24T16:52:47;10.10;99.90
23283;DHT22;11810;51.178;3.878;2022-11-24T16:55:12;10.00;99.90
23283;DHT22;11810;51.178;3.878;2022-11-24T16:57:38;10.00;99.90
23283;DHT22;11810;51.178;3.878;2022-11-24T17:00:04;9.90;99.90
23283;DHT22;11810;51.178;3.878;2022-11-24T17:02:31;9.80;99.90
23283;DHT22;11810;51.178;3.878;2022-11-24T17:04:57;9.70;99.90
23283;DHT22;11810;51.178;3.878;2022-11-24T17:07:23;9.60;99.90
23283;DHT22;11810;51.178;3.878;2022-11-24T17:09:49;9.60;99.90
23283;DHT22;11810;51.178;3.878;2022-11-24T17:12:14;9.70;99.90
23283;DHT22;11810;51.178;3.878;2022-11-24T17:14:40;9.70;99.90
23283;DHT22;11810;51.178;3.878;2022-11-24T17:17:06;9.70;99.90
23283;DHT22;11810;51.178;3.878;2022-11-24T17:19:32;9.70;99.90
23283;DHT22;11810;51.178;3.878;2022-11-24T17:21:57;9.70;99.90
23283;DHT22;11810;51.178;3.878;2022-11-24T17:24:23;9.70;99.90